sensor_id;sensor_type;location;lat;lon;timestamp;P1;durP1;ratioP1;P2;durP2;ratioP2
74473;SDS011;62922;-6.168;106.796;2022-09-01T00:01:54;65.60;;;38.13;;
74473;SDS011;62922;-6.168;106.796;2022-09-01T00:04:21;65.68;;;38.47;;
74473;SDS011;62922;-6.168;106.796;2022-09-01T00:06:50;73.30;;;39.70;;
74473;SDS011;62922;-6.168;106.796;2022-09-01T00:09:19;75.45;;;38.35;;
74473;SDS011;62922;-6.168;106.796;2022-09-01T00:11:46;65.85;;;39.35;;
74473;SDS011;62922;-6.168;106.796;2022-09-01T00:14:12;70.40;;;40.20;;
74473;SDS011;62922;-6.168;106.796;2022-09-01T00:16:38;63.22;;;39.75;;
74473;SDS011;62922;-6.168;106.796;2022-09-01T00:19:04;65.40;;;37.85;;
74473;SDS011;62922;-6.168;106.796;2022-09-01T00:21:32;65.78;;;37.83;;
74473;SDS011;62922;-6.168;106.796;2022-09-01T00:23:58;67.53;;;38.13;;
74473;SDS011;62922;-6.168;106.796;2022-09-01T00:26:25;65.78;;;37.50;;
74473;SDS011;62922;-6.168;106.796;2022-09-01T00:28:51;66.53;;;37.63;;
74473;SDS011;62922;-6.168;106.796;2022-09-01T00:31:17;68.38;;;38.15;;
74473;SDS011;62922;-6.168;106.796;2022-09-01T00:33:45;63.25;;;37.83;;
74473;SDS011;62922;-6.168;106.796;2022-09-01T00:36:12;61.92;;;36.72;;
74473;SDS011;62922;-6.168;106.796;2022-09-01T00:38:38;64.55;;;37.20;;
74473;SDS011;62922;-6.168;106.796;2022-09-01T00:41:04;66.60;;;38.75;;
74473;SDS011;62922;-6.168;106.796;2022-09-01T00:46:03;65.63;;;37.65;;
74473;SDS011;62922;-6.168;106.796;2022-09-01T00:48:30;61.78;;;36.88;;
74473;SDS011;62922;-6.168;106.796;2022-09-01T00:50:56;66.78;;;38.90;;
74473;SDS011;62922;-6.168;106.796;2022-09-01T00:53:23;59.17;;;36.58;;
74473;SDS011;62922;-6.168;106.796;2022-09-01T00:55:49;61.25;;;36.63;;
74473;SDS011;62922;-6.168;106.796;2022-09-01T00:58:15;61.60;;;38.08;;
74473;SDS011;62922;-6.168;106.796;2022-09-01T01:00:41;59.83;;;36.10;;
74473;SDS011;62922;-6.168;106.796;2022-09-01T01:03:08;60.80;;;36.00;;
74473;SDS011;62922;-6.168;106.796;2022-09-01T01:05:36;60.03;;;36.17;;
74473;SDS011;62922;-6.168;106.796;2022-09-01T01:08:04;64.93;;;35.88;;
74473;SDS011;62922;-6.168;106.796;2022-09-01T01:10:38;65.38;;;37.40;;
74473;SDS011;62922;-6.168;106.796;2022-09-01T01:15:33;59.05;;;35.03;;
74473;SDS011;62922;-6.168;106.796;2022-09-01T01:17:59;61.03;;;35.67;;
74473;SDS011;62922;-6.168;106.796;2022-09-01T01:20:26;62.45;;;37.53;;
74473;SDS011;62922;-6.168;106.796;2022-09-01T01:22:59;62.22;;;36.00;;
74473;SDS011;62922;-6.168;106.796;2022-09-01T01:25:55;60.95;;;37.95;;
74473;SDS011;62922;-6.168;106.796;2022-09-01T01:30:45;63.88;;;37.88;;
74473;SDS011;62922;-6.168;106.796;2022-09-01T01:33:21;61.75;;;37.08;;
74473;SDS011;62922;-6.168;106.796;2022-09-01T01:35:50;63.47;;;38.10;;
74473;SDS011;62922;-6.168;106.796;2022-09-01T01:38:19;57.33;;;36.30;;
74473;SDS011;62922;-6.168;106.796;2022-09-01T01:40:46;58.65;;;36.25;;
74473;SDS011;62922;-6.168;106.796;2022-09-01T01:43:12;58.03;;;38.03;;
74473;SDS011;62922;-6.168;106.796;2022-09-01T01:45:51;55.03;;;36.25;;
74473;SDS011;62922;-6.168;106.796;2022-09-01T01:48:19;66.90;;;39.38;;
74473;SDS011;62922;-6.168;106.796;2022-09-01T01:50:48;61.55;;;40.33;;
74473;SDS011;62922;-6.168;106.796;2022-09-01T01:53:14;59.95;;;40.47;;
74473;SDS011;62922;-6.168;106.796;2022-09-01T01:55:42;64.20;;;38.63;;
74473;SDS011;62922;-6.168;106.796;2022-09-01T01:58:09;60.35;;;38.55;;
74473;SDS011;62922;-6.168;106.796;2022-09-01T02:00:40;67.10;;;38.08;;
74473;SDS011;62922;-6.168;106.796;2022-09-01T02:03:09;62.40;;;38.22;;
74473;SDS011;62922;-6.168;106.796;2022-09-01T02:05:37;59.45;;;37.97;;
74473;SDS011;62922;-6.168;106.796;2022-09-01T02:08:05;67.45;;;37.08;;
74473;SDS011;62922;-6.168;106.796;2022-09-01T02:10:34;58.83;;;35.58;;
74473;SDS011;62922;-6.168;106.796;2022-09-01T02:13:01;61.20;;;37.20;;
74473;SDS011;62922;-6.168;106.796;2022-09-01T02:15:35;64.85;;;35.55;;
74473;SDS011;62922;-6.168;106.796;2022-09-01T02:18:06;56.83;;;35.42;;
74473;SDS011;62922;-6.168;106.796;2022-09-01T02:20:32;56.08;;;35.28;;
74473;SDS011;62922;-6.168;106.796;2022-09-01T02:22:59;54.90;;;35.28;;
74473;SDS011;62922;-6.168;106.796;2022-09-01T02:25:27;51.67;;;34.97;;
74473;SDS011;62922;-6.168;106.796;2022-09-01T02:27:53;56.92;;;35.67;;
74473;SDS011;62922;-6.168;106.796;2022-09-01T02:30:20;55.45;;;34.70;;
74473;SDS011;62922;-6.168;106.796;2022-09-01T02:32:50;55.80;;;34.97;;
74473;SDS011;62922;-6.168;106.796;2022-09-01T02:35:16;57.97;;;34.42;;
74473;SDS011;62922;-6.168;106.796;2022-09-01T02:37:43;77.65;;;35.08;;
74473;SDS011;62922;-6.168;106.796;2022-09-01T02:40:10;58.63;;;32.67;;
74473;SDS011;62922;-6.168;106.796;2022-09-01T02:42:37;53.58;;;32.00;;
74473;SDS011;62922;-6.168;106.796;2022-09-01T02:45:05;47.78;;;30.05;;
74473;SDS011;62922;-6.168;106.796;2022-09-01T02:47:36;48.53;;;30.40;;
74473;SDS011;62922;-6.168;106.796;2022-09-01T02:50:06;54.97;;;31.20;;
74473;SDS011;62922;-6.168;106.796;2022-09-01T02:52:38;50.58;;;30.27;;
74473;SDS011;62922;-6.168;106.796;2022-09-01T02:55:05;51.08;;;30.30;;
74473;SDS011;62922;-6.168;106.796;2022-09-01T02:57:31;48.72;;;29.20;;
74473;SDS011;62922;-6.168;106.796;2022-09-01T02:59:59;51.05;;;28.60;;
74473;SDS011;62922;-6.168;106.796;2022-09-01T03:02:25;45.03;;;27.25;;
74473;SDS011;62922;-6.168;106.796;2022-09-01T03:04:53;44.38;;;24.58;;
74473;SDS011;62922;-6.168;106.796;2022-09-01T03:07:20;41.75;;;25.17;;
74473;SDS011;62922;-6.168;106.796;2022-09-01T03:09:48;37.38;;;23.48;;
74473;SDS011;62922;-6.168;106.796;2022-09-01T03:12:14;39.70;;;22.50;;
74473;SDS011;62922;-6.168;106.796;2022-09-01T03:14:40;34.42;;;21.85;;
74473;SDS011;62922;-6.168;106.796;2022-09-01T03:17:06;41.63;;;22.10;;
74473;SDS011;62922;-6.168;106.796;2022-09-01T03:19:32;34.72;;;21.35;;
74473;SDS011;62922;-6.168;106.796;2022-09-01T03:22:01;34.45;;;20.58;;
74473;SDS011;62922;-6.168;106.796;2022-09-01T03:24:27;38.33;;;21.40;;
74473;SDS011;62922;-6.168;106.796;2022-09-01T03:26:53;34.08;;;20.08;;
74473;SDS011;62922;-6.168;106.796;2022-09-01T03:29:20;35.35;;;20.35;;
74473;SDS011;62922;-6.168;106.796;2022-09-01T03:31:48;31.90;;;19.85;;
74473;SDS011;62922;-6.168;106.796;2022-09-01T03:34:14;36.45;;;19.27;;
74473;SDS011;62922;-6.168;106.796;2022-09-01T03:36:41;34.28;;;18.90;;
74473;SDS011;62922;-6.168;106.796;2022-09-01T03:39:15;31.13;;;18.00;;
74473;SDS011;62922;-6.168;106.796;2022-09-01T03:41:41;32.60;;;18.85;;
74473;SDS011;62922;-6.168;106.796;2022-09-01T03:44:07;32.05;;;18.30;;
74473;SDS011;62922;-6.168;106.796;2022-09-01T03:46:36;30.33;;;17.80;;
74473;SDS011;62922;-6.168;106.796;2022-09-01T03:49:04;30.40;;;17.05;;
74473;SDS011;62922;-6.168;106.796;2022-09-01T03:51:36;27.95;;;17.08;;
74473;SDS011;62922;-6.168;106.796;2022-09-01T03:54:03;30.10;;;16.52;;
74473;SDS011;62922;-6.168;106.796;2022-09-01T03:56:29;33.72;;;16.80;;
74473;SDS011;62922;-6.168;106.796;2022-09-01T03:58:56;29.63;;;16.02;;
74473;SDS011;62922;-6.168;106.796;2022-09-01T04:01:23;26.58;;;14.43;;
74473;SDS011;62922;-6.168;106.796;2022-09-01T04:03:49;24.77;;;12.88;;
74473;SDS011;62922;-6.168;106.796;2022-09-01T04:06:16;28.52;;;13.07;;
74473;SDS011;62922;-6.168;106.796;2022-09-01T04:08:44;22.85;;;12.13;;
74473;SDS011;62922;-6.168;106.796;2022-09-01T04:11:11;27.13;;;12.73;;
74473;SDS011;62922;-6.168;106.796;2022-09-01T04:16:15;27.02;;;13.05;;
74473;SDS011;62922;-6.168;106.796;2022-09-01T04:19:01;26.13;;;12.82;;
74473;SDS011;62922;-6.168;106.796;2022-09-01T04:21:40;26.08;;;13.27;;
74473;SDS011;62922;-6.168;106.796;2022-09-01T04:24:07;24.35;;;14.68;;
74473;SDS011;62922;-6.168;106.796;2022-09-01T04:26:33;25.17;;;14.02;;
74473;SDS011;62922;-6.168;106.796;2022-09-01T04:29:00;27.10;;;14.15;;
74473;SDS011;62922;-6.168;106.796;2022-09-01T04:31:26;31.27;;;15.95;;
74473;SDS011;62922;-6.168;106.796;2022-09-01T04:33:52;27.40;;;15.27;;
74473;SDS011;62922;-6.168;106.796;2022-09-01T04:36:20;27.98;;;15.60;;
74473;SDS011;62922;-6.168;106.796;2022-09-01T04:38:49;32.95;;;16.98;;
74473;SDS011;62922;-6.168;106.796;2022-09-01T04:41:19;34.60;;;17.63;;
74473;SDS011;62922;-6.168;106.796;2022-09-01T04:43:46;33.53;;;16.30;;
74473;SDS011;62922;-6.168;106.796;2022-09-01T04:46:13;29.77;;;16.45;;
74473;SDS011;62922;-6.168;106.796;2022-09-01T04:48:39;34.83;;;18.45;;
74473;SDS011;62922;-6.168;106.796;2022-09-01T04:51:09;35.05;;;18.35;;
74473;SDS011;62922;-6.168;106.796;2022-09-01T04:53:37;39.05;;;19.98;;
74473;SDS011;62922;-6.168;106.796;2022-09-01T04:56:05;33.92;;;21.35;;
74473;SDS011;62922;-6.168;106.796;2022-09-01T04:58:31;38.00;;;19.95;;
74473;SDS011;62922;-6.168;106.796;2022-09-01T05:00:58;35.00;;;20.85;;
74473;SDS011;62922;-6.168;106.796;2022-09-01T05:03:25;34.13;;;20.63;;
74473;SDS011;62922;-6.168;106.796;2022-09-01T05:05:51;37.78;;;21.30;;
74473;SDS011;62922;-6.168;106.796;2022-09-01T05:08:19;43.28;;;21.55;;
74473;SDS011;62922;-6.168;106.796;2022-09-01T05:10:48;34.08;;;21.70;;
74473;SDS011;62922;-6.168;106.796;2022-09-01T05:13:17;36.33;;;21.92;;
74473;SDS011;62922;-6.168;106.796;2022-09-01T05:15:44;40.13;;;22.20;;
74473;SDS011;62922;-6.168;106.796;2022-09-01T05:18:12;34.03;;;20.90;;
74473;SDS011;62922;-6.168;106.796;2022-09-01T05:20:38;34.53;;;20.58;;
74473;SDS011;62922;-6.168;106.796;2022-09-01T05:23:08;33.90;;;19.48;;
74473;SDS011;62922;-6.168;106.796;2022-09-01T05:25:37;31.48;;;18.98;;
74473;SDS011;62922;-6.168;106.796;2022-09-01T05:28:03;31.73;;;16.80;;
74473;SDS011;62922;-6.168;106.796;2022-09-01T05:30:29;32.33;;;15.98;;
74473;SDS011;62922;-6.168;106.796;2022-09-01T05:32:56;28.58;;;15.85;;
74473;SDS011;62922;-6.168;106.796;2022-09-01T05:35:22;33.55;;;16.42;;
74473;SDS011;62922;-6.168;106.796;2022-09-01T05:37:50;31.95;;;16.05;;
74473;SDS011;62922;-6.168;106.796;2022-09-01T05:40:16;27.58;;;15.43;;
74473;SDS011;62922;-6.168;106.796;2022-09-01T05:42:42;29.45;;;15.35;;
74473;SDS011;62922;-6.168;106.796;2022-09-01T05:45:09;27.52;;;14.00;;
74473;SDS011;62922;-6.168;106.796;2022-09-01T05:47:38;24.05;;;13.93;;
74473;SDS011;62922;-6.168;106.796;2022-09-01T05:50:05;25.60;;;13.43;;
74473;SDS011;62922;-6.168;106.796;2022-09-01T05:52:35;29.83;;;13.68;;
74473;SDS011;62922;-6.168;106.796;2022-09-01T05:55:01;29.02;;;13.68;;
74473;SDS011;62922;-6.168;106.796;2022-09-01T05:57:27;27.73;;;14.30;;
74473;SDS011;62922;-6.168;106.796;2022-09-01T05:59:53;24.08;;;12.65;;
74473;SDS011;62922;-6.168;106.796;2022-09-01T06:02:19;29.23;;;13.27;;
74473;SDS011;62922;-6.168;106.796;2022-09-01T06:04:46;27.98;;;13.88;;
74473;SDS011;62922;-6.168;106.796;2022-09-01T06:07:12;24.50;;;12.77;;
74473;SDS011;62922;-6.168;106.796;2022-09-01T06:09:39;24.00;;;12.63;;
74473;SDS011;62922;-6.168;106.796;2022-09-01T06:12:06;25.50;;;14.50;;
74473;SDS011;62922;-6.168;106.796;2022-09-01T06:14:36;26.48;;;14.38;;
74473;SDS011;62922;-6.168;106.796;2022-09-01T06:17:02;26.48;;;13.60;;
74473;SDS011;62922;-6.168;106.796;2022-09-01T06:19:27;22.90;;;13.13;;
74473;SDS011;62922;-6.168;106.796;2022-09-01T06:21:53;24.70;;;13.60;;
74473;SDS011;62922;-6.168;106.796;2022-09-01T06:24:19;27.35;;;14.32;;
74473;SDS011;62922;-6.168;106.796;2022-09-01T06:26:45;29.55;;;14.52;;
74473;SDS011;62922;-6.168;106.796;2022-09-01T06:29:11;27.23;;;14.95;;
74473;SDS011;62922;-6.168;106.796;2022-09-01T06:31:39;28.92;;;15.43;;
74473;SDS011;62922;-6.168;106.796;2022-09-01T06:34:07;30.15;;;15.18;;
74473;SDS011;62922;-6.168;106.796;2022-09-01T06:36:35;35.67;;;16.88;;
74473;SDS011;62922;-6.168;106.796;2022-09-01T06:39:02;32.28;;;16.60;;
74473;SDS011;62922;-6.168;106.796;2022-09-01T06:41:28;30.58;;;15.93;;
74473;SDS011;62922;-6.168;106.796;2022-09-01T06:43:55;30.08;;;15.32;;
74473;SDS011;62922;-6.168;106.796;2022-09-01T06:46:22;26.67;;;14.13;;
74473;SDS011;62922;-6.168;106.796;2022-09-01T06:48:48;30.85;;;14.85;;
74473;SDS011;62922;-6.168;106.796;2022-09-01T06:51:18;36.08;;;14.60;;
74473;SDS011;62922;-6.168;106.796;2022-09-01T06:53:47;35.40;;;14.88;;
74473;SDS011;62922;-6.168;106.796;2022-09-01T06:56:21;31.42;;;14.13;;
74473;SDS011;62922;-6.168;106.796;2022-09-01T06:58:52;28.15;;;14.98;;
74473;SDS011;62922;-6.168;106.796;2022-09-01T07:01:18;28.02;;;14.75;;
74473;SDS011;62922;-6.168;106.796;2022-09-01T07:03:46;30.73;;;13.95;;
74473;SDS011;62922;-6.168;106.796;2022-09-01T07:06:13;31.98;;;15.05;;
74473;SDS011;62922;-6.168;106.796;2022-09-01T07:08:39;27.95;;;14.27;;
74473;SDS011;62922;-6.168;106.796;2022-09-01T07:11:06;29.20;;;13.63;;
74473;SDS011;62922;-6.168;106.796;2022-09-01T07:13:33;30.02;;;13.35;;
74473;SDS011;62922;-6.168;106.796;2022-09-01T07:16:00;28.33;;;12.93;;
74473;SDS011;62922;-6.168;106.796;2022-09-01T07:18:26;27.30;;;12.15;;
74473;SDS011;62922;-6.168;106.796;2022-09-01T07:20:53;24.65;;;11.48;;
74473;SDS011;62922;-6.168;106.796;2022-09-01T07:23:19;24.25;;;10.52;;
74473;SDS011;62922;-6.168;106.796;2022-09-01T07:25:46;22.65;;;9.98;;
74473;SDS011;62922;-6.168;106.796;2022-09-01T07:28:13;19.83;;;9.52;;
74473;SDS011;62922;-6.168;106.796;2022-09-01T07:30:41;20.13;;;9.07;;
74473;SDS011;62922;-6.168;106.796;2022-09-01T07:33:09;19.63;;;8.65;;
74473;SDS011;62922;-6.168;106.796;2022-09-01T07:35:36;17.92;;;9.70;;
74473;SDS011;62922;-6.168;106.796;2022-09-01T07:38:03;20.95;;;9.88;;
74473;SDS011;62922;-6.168;106.796;2022-09-01T07:40:30;20.83;;;9.38;;
74473;SDS011;62922;-6.168;106.796;2022-09-01T07:42:56;20.35;;;9.13;;
74473;SDS011;62922;-6.168;106.796;2022-09-01T07:45:22;22.13;;;8.60;;
74473;SDS011;62922;-6.168;106.796;2022-09-01T07:47:50;19.40;;;8.52;;
74473;SDS011;62922;-6.168;106.796;2022-09-01T07:50:16;23.92;;;8.18;;
74473;SDS011;62922;-6.168;106.796;2022-09-01T07:52:42;29.77;;;8.75;;
74473;SDS011;62922;-6.168;106.796;2022-09-01T07:55:09;16.10;;;7.57;;
74473;SDS011;62922;-6.168;106.796;2022-09-01T07:57:37;21.55;;;8.90;;
74473;SDS011;62922;-6.168;106.796;2022-09-01T08:00:05;22.80;;;9.50;;
74473;SDS011;62922;-6.168;106.796;2022-09-01T08:02:32;23.75;;;9.80;;
74473;SDS011;62922;-6.168;106.796;2022-09-01T08:04:57;21.25;;;10.25;;
74473;SDS011;62922;-6.168;106.796;2022-09-01T08:07:24;22.60;;;10.50;;
74473;SDS011;62922;-6.168;106.796;2022-09-01T08:09:50;23.52;;;10.77;;
74473;SDS011;62922;-6.168;106.796;2022-09-01T08:12:16;23.30;;;10.63;;
74473;SDS011;62922;-6.168;106.796;2022-09-01T08:14:42;21.90;;;9.93;;
74473;SDS011;62922;-6.168;106.796;2022-09-01T08:17:08;26.00;;;10.18;;
74473;SDS011;62922;-6.168;106.796;2022-09-01T08:19:35;23.95;;;9.65;;
74473;SDS011;62922;-6.168;106.796;2022-09-01T08:22:00;19.95;;;9.88;;
74473;SDS011;62922;-6.168;106.796;2022-09-01T08:24:26;20.60;;;9.43;;
74473;SDS011;62922;-6.168;106.796;2022-09-01T08:26:52;21.73;;;9.68;;
74473;SDS011;62922;-6.168;106.796;2022-09-01T08:29:18;20.80;;;9.15;;
74473;SDS011;62922;-6.168;106.796;2022-09-01T08:31:45;23.00;;;9.43;;
74473;SDS011;62922;-6.168;106.796;2022-09-01T08:34:11;17.98;;;8.55;;
74473;SDS011;62922;-6.168;106.796;2022-09-01T08:36:37;18.65;;;9.20;;
74473;SDS011;62922;-6.168;106.796;2022-09-01T08:39:05;19.90;;;8.65;;
74473;SDS011;62922;-6.168;106.796;2022-09-01T08:41:36;22.00;;;8.52;;
74473;SDS011;62922;-6.168;106.796;2022-09-01T08:46:36;20.02;;;8.73;;
74473;SDS011;62922;-6.168;106.796;2022-09-01T08:49:34;22.65;;;8.88;;
74473;SDS011;62922;-6.168;106.796;2022-09-01T08:54:20;21.45;;;9.05;;
74473;SDS011;62922;-6.168;106.796;2022-09-01T08:56:48;22.52;;;9.35;;
74473;SDS011;62922;-6.168;106.796;2022-09-01T08:59:17;17.70;;;8.30;;
74473;SDS011;62922;-6.168;106.796;2022-09-01T09:04:17;19.35;;;9.02;;
74473;SDS011;62922;-6.168;106.796;2022-09-01T09:06:50;20.40;;;9.18;;
74473;SDS011;62922;-6.168;106.796;2022-09-01T09:09:20;23.27;;;9.43;;
74473;SDS011;62922;-6.168;106.796;2022-09-01T09:14:45;23.58;;;10.27;;
74473;SDS011;62922;-6.168;106.796;2022-09-01T09:17:05;22.73;;;10.80;;
74473;SDS011;62922;-6.168;106.796;2022-09-01T09:22:03;23.17;;;10.23;;
74473;SDS011;62922;-6.168;106.796;2022-09-01T09:29:39;24.70;;;10.75;;
74473;SDS011;62922;-6.168;106.796;2022-09-01T09:32:07;24.73;;;11.40;;
74473;SDS011;62922;-6.168;106.796;2022-09-01T09:34:35;29.02;;;11.88;;
74473;SDS011;62922;-6.168;106.796;2022-09-01T09:39:30;25.75;;;11.82;;
74473;SDS011;62922;-6.168;106.796;2022-09-01T09:44:25;23.55;;;11.40;;
74473;SDS011;62922;-6.168;106.796;2022-09-01T09:46:56;25.55;;;11.10;;
74473;SDS011;62922;-6.168;106.796;2022-09-01T09:49:24;24.60;;;10.98;;
74473;SDS011;62922;-6.168;106.796;2022-09-01T09:54:20;21.40;;;11.02;;
74473;SDS011;62922;-6.168;106.796;2022-09-01T09:56:46;27.30;;;11.00;;
74473;SDS011;62922;-6.168;106.796;2022-09-01T09:59:27;25.48;;;11.20;;
74473;SDS011;62922;-6.168;106.796;2022-09-01T10:01:57;22.52;;;12.00;;
74473;SDS011;62922;-6.168;106.796;2022-09-01T10:06:51;24.25;;;12.20;;
74473;SDS011;62922;-6.168;106.796;2022-09-01T10:11:49;19.95;;;11.52;;
74473;SDS011;62922;-6.168;106.796;2022-09-01T10:14:19;27.42;;;12.25;;
74473;SDS011;62922;-6.168;106.796;2022-09-01T10:16:46;28.20;;;12.25;;
74473;SDS011;62922;-6.168;106.796;2022-09-01T10:19:14;28.10;;;13.20;;
74473;SDS011;62922;-6.168;106.796;2022-09-01T10:21:41;25.13;;;12.95;;
74473;SDS011;62922;-6.168;106.796;2022-09-01T10:26:37;21.40;;;12.55;;
74473;SDS011;62922;-6.168;106.796;2022-09-01T10:29:08;23.63;;;12.43;;
74473;SDS011;62922;-6.168;106.796;2022-09-01T10:31:38;21.80;;;13.10;;
74473;SDS011;62922;-6.168;106.796;2022-09-01T10:34:04;47.72;;;20.30;;
74473;SDS011;62922;-6.168;106.796;2022-09-01T10:36:31;73.50;;;28.38;;
74473;SDS011;62922;-6.168;106.796;2022-09-01T10:38:57;66.60;;;25.75;;
74473;SDS011;62922;-6.168;106.796;2022-09-01T10:43:54;47.25;;;17.90;;
74473;SDS011;62922;-6.168;106.796;2022-09-01T10:48:58;32.88;;;14.18;;
74473;SDS011;62922;-6.168;106.796;2022-09-01T10:53:51;25.83;;;12.77;;
74473;SDS011;62922;-6.168;106.796;2022-09-01T11:01:14;25.25;;;10.60;;
74473;SDS011;62922;-6.168;106.796;2022-09-01T11:06:08;24.45;;;9.98;;
74473;SDS011;62922;-6.168;106.796;2022-09-01T11:18:37;22.00;;;8.80;;
74473;SDS011;62922;-6.168;106.796;2022-09-01T11:23:31;26.73;;;8.85;;
74473;SDS011;62922;-6.168;106.796;2022-09-01T11:26:00;22.52;;;9.43;;
74473;SDS011;62922;-6.168;106.796;2022-09-01T11:30:59;22.30;;;9.93;;
74473;SDS011;62922;-6.168;106.796;2022-09-01T11:33:35;22.38;;;9.95;;
74473;SDS011;62922;-6.168;106.796;2022-09-01T11:36:05;24.52;;;9.93;;
74473;SDS011;62922;-6.168;106.796;2022-09-01T11:38:35;22.38;;;10.90;;
74473;SDS011;62922;-6.168;106.796;2022-09-01T11:41:03;22.70;;;10.57;;
74473;SDS011;62922;-6.168;106.796;2022-09-01T11:43:29;21.10;;;11.40;;
74473;SDS011;62922;-6.168;106.796;2022-09-01T11:48:22;22.63;;;12.75;;
74473;SDS011;62922;-6.168;106.796;2022-09-01T11:53:20;25.85;;;12.43;;
74473;SDS011;62922;-6.168;106.796;2022-09-01T11:55:47;30.38;;;14.32;;
74473;SDS011;62922;-6.168;106.796;2022-09-01T12:00:42;30.65;;;19.10;;
74473;SDS011;62922;-6.168;106.796;2022-09-01T12:03:20;33.13;;;21.67;;
74473;SDS011;62922;-6.168;106.796;2022-09-01T12:05:47;34.00;;;24.15;;
74473;SDS011;62922;-6.168;106.796;2022-09-01T12:08:16;30.23;;;21.02;;
74473;SDS011;62922;-6.168;106.796;2022-09-01T12:10:43;34.53;;;20.25;;
74473;SDS011;62922;-6.168;106.796;2022-09-01T12:13:10;22.35;;;17.20;;
74473;SDS011;62922;-6.168;106.796;2022-09-01T12:15:38;25.30;;;16.35;;
74473;SDS011;62922;-6.168;106.796;2022-09-01T12:18:10;23.63;;;14.05;;
74473;SDS011;62922;-6.168;106.796;2022-09-01T12:20:36;25.35;;;14.55;;
74473;SDS011;62922;-6.168;106.796;2022-09-01T12:23:09;23.85;;;13.13;;
74473;SDS011;62922;-6.168;106.796;2022-09-01T12:25:39;19.42;;;12.10;;
74473;SDS011;62922;-6.168;106.796;2022-09-01T12:28:05;16.30;;;11.15;;
74473;SDS011;62922;-6.168;106.796;2022-09-01T12:30:37;18.88;;;11.48;;
74473;SDS011;62922;-6.168;106.796;2022-09-01T12:33:06;19.33;;;11.23;;
74473;SDS011;62922;-6.168;106.796;2022-09-01T12:35:32;19.27;;;12.10;;
74473;SDS011;62922;-6.168;106.796;2022-09-01T12:40:30;21.80;;;10.85;;
74473;SDS011;62922;-6.168;106.796;2022-09-01T12:42:56;20.10;;;10.85;;
74473;SDS011;62922;-6.168;106.796;2022-09-01T12:47:50;18.15;;;10.48;;
74473;SDS011;62922;-6.168;106.796;2022-09-01T12:52:44;22.48;;;10.68;;
74473;SDS011;62922;-6.168;106.796;2022-09-01T12:55:14;27.05;;;11.32;;
74473;SDS011;62922;-6.168;106.796;2022-09-01T13:02:46;24.70;;;12.23;;
74473;SDS011;62922;-6.168;106.796;2022-09-01T13:07:42;22.90;;;11.40;;
74473;SDS011;62922;-6.168;106.796;2022-09-01T13:10:08;25.67;;;12.80;;
74473;SDS011;62922;-6.168;106.796;2022-09-01T13:12:37;20.13;;;12.27;;
74473;SDS011;62922;-6.168;106.796;2022-09-01T13:15:05;29.38;;;12.20;;
74473;SDS011;62922;-6.168;106.796;2022-09-01T13:17:31;21.50;;;12.02;;
74473;SDS011;62922;-6.168;106.796;2022-09-01T13:19:57;18.60;;;12.18;;
74473;SDS011;62922;-6.168;106.796;2022-09-01T13:22:23;19.42;;;11.88;;
74473;SDS011;62922;-6.168;106.796;2022-09-01T13:24:49;19.75;;;12.05;;
74473;SDS011;62922;-6.168;106.796;2022-09-01T13:27:15;26.50;;;13.02;;
74473;SDS011;62922;-6.168;106.796;2022-09-01T13:29:41;18.25;;;11.85;;
74473;SDS011;62922;-6.168;106.796;2022-09-01T13:32:07;21.80;;;12.13;;
74473;SDS011;62922;-6.168;106.796;2022-09-01T13:34:33;22.05;;;12.00;;
74473;SDS011;62922;-6.168;106.796;2022-09-01T13:36:59;17.15;;;11.27;;
74473;SDS011;62922;-6.168;106.796;2022-09-01T13:39:28;25.58;;;11.77;;
74473;SDS011;62922;-6.168;106.796;2022-09-01T13:41:54;19.20;;;11.52;;
74473;SDS011;62922;-6.168;106.796;2022-09-01T13:44:20;24.98;;;11.75;;
74473;SDS011;62922;-6.168;106.796;2022-09-01T14:53:27;43.08;;;22.30;;
74473;SDS011;62922;-6.168;106.796;2022-09-01T14:55:54;43.40;;;22.48;;
74473;SDS011;62922;-6.168;106.796;2022-09-01T14:58:20;37.55;;;21.13;;
74473;SDS011;62922;-6.168;106.796;2022-09-01T15:00:46;36.13;;;21.63;;
74473;SDS011;62922;-6.168;106.796;2022-09-01T15:03:12;38.33;;;22.15;;
74473;SDS011;62922;-6.168;106.796;2022-09-01T15:05:38;45.53;;;27.30;;
74473;SDS011;62922;-6.168;106.796;2022-09-01T15:08:05;50.53;;;32.53;;
74473;SDS011;62922;-6.168;106.796;2022-09-01T15:10:31;61.35;;;41.05;;
74473;SDS011;62922;-6.168;106.796;2022-09-01T15:12:58;57.72;;;43.47;;
74473;SDS011;62922;-6.168;106.796;2022-09-01T15:15:24;60.20;;;44.05;;
74473;SDS011;62922;-6.168;106.796;2022-09-01T15:17:51;60.67;;;38.22;;
74473;SDS011;62922;-6.168;106.796;2022-09-01T15:20:17;48.92;;;34.70;;
74473;SDS011;62922;-6.168;106.796;2022-09-01T15:22:46;43.00;;;32.38;;
74473;SDS011;62922;-6.168;106.796;2022-09-01T15:25:13;47.28;;;33.30;;
74473;SDS011;62922;-6.168;106.796;2022-09-01T15:27:39;74.63;;;46.67;;
74473;SDS011;62922;-6.168;106.796;2022-09-01T15:30:05;67.60;;;46.08;;
74473;SDS011;62922;-6.168;106.796;2022-09-01T15:32:44;75.35;;;45.30;;
74473;SDS011;62922;-6.168;106.796;2022-09-01T15:35:10;71.38;;;49.60;;
74473;SDS011;62922;-6.168;106.796;2022-09-01T15:37:36;78.75;;;49.95;;
74473;SDS011;62922;-6.168;106.796;2022-09-01T15:40:03;62.28;;;43.75;;
74473;SDS011;62922;-6.168;106.796;2022-09-01T15:42:29;55.92;;;39.47;;
74473;SDS011;62922;-6.168;106.796;2022-09-01T15:44:55;56.75;;;36.78;;
74473;SDS011;62922;-6.168;106.796;2022-09-01T15:47:21;48.65;;;31.50;;
74473;SDS011;62922;-6.168;106.796;2022-09-01T15:49:47;48.28;;;31.67;;
74473;SDS011;62922;-6.168;106.796;2022-09-01T15:52:14;38.10;;;26.75;;
74473;SDS011;62922;-6.168;106.796;2022-09-01T15:54:40;43.95;;;27.63;;
74473;SDS011;62922;-6.168;106.796;2022-09-01T15:57:06;45.30;;;25.00;;
74473;SDS011;62922;-6.168;106.796;2022-09-01T15:59:32;36.00;;;24.10;;
74473;SDS011;62922;-6.168;106.796;2022-09-01T16:01:59;35.95;;;24.15;;
74473;SDS011;62922;-6.168;106.796;2022-09-01T16:04:26;34.80;;;22.55;;
74473;SDS011;62922;-6.168;106.796;2022-09-01T16:06:52;31.65;;;20.15;;
74473;SDS011;62922;-6.168;106.796;2022-09-01T16:09:20;28.92;;;19.80;;
74473;SDS011;62922;-6.168;106.796;2022-09-01T16:11:46;26.85;;;18.73;;
74473;SDS011;62922;-6.168;106.796;2022-09-01T16:14:12;32.03;;;18.77;;
74473;SDS011;62922;-6.168;106.796;2022-09-01T16:19:09;30.38;;;17.83;;
74473;SDS011;62922;-6.168;106.796;2022-09-01T16:24:08;31.52;;;18.75;;
74473;SDS011;62922;-6.168;106.796;2022-09-01T16:26:35;34.13;;;18.85;;
74473;SDS011;62922;-6.168;106.796;2022-09-01T16:29:02;35.10;;;19.65;;
74473;SDS011;62922;-6.168;106.796;2022-09-01T16:31:31;30.23;;;19.23;;
74473;SDS011;62922;-6.168;106.796;2022-09-01T16:33:58;28.63;;;18.70;;
74473;SDS011;62922;-6.168;106.796;2022-09-01T16:36:31;32.25;;;19.58;;
74473;SDS011;62922;-6.168;106.796;2022-09-01T16:43:55;34.88;;;19.17;;
74473;SDS011;62922;-6.168;106.796;2022-09-01T16:56:18;30.30;;;18.10;;
74473;SDS011;62922;-6.168;106.796;2022-09-01T16:58:52;30.17;;;17.67;;
74473;SDS011;62922;-6.168;106.796;2022-09-01T17:08:52;34.45;;;20.42;;
74473;SDS011;62922;-6.168;106.796;2022-09-01T17:11:26;32.97;;;19.60;;